sensor_id;sensor_type;location;lat;lon;timestamp;pressure;altitude;pressure_sealevel;temperature;humidity
54144;BME280;40050;47.324;18.792;2022-12-15T00:01:54;993.51;;;1.98;72.69
54144;BME280;40050;47.324;18.792;2022-12-15T00:03:57;993.55;;;2.03;72.66
54144;BME280;40050;47.324;18.792;2022-12-15T00:05:59;993.45;;;1.97;72.54
54144;BME280;40050;47.324;18.792;2022-12-15T00:08:05;993.65;;;2.10;72.46
54144;BME280;40050;47.324;18.792;2022-12-15T00:10:07;993.73;;;2.13;72.41
54144;BME280;40050;47.324;18.792;2022-12-15T00:12:10;993.69;;;2.12;72.34
54144;BME280;40050;47.324;18.792;2022-12-15T00:14:12;993.66;;;2.14;72.33
54144;BME280;40050;47.324;18.792;2022-12-15T00:16:15;993.72;;;2.18;72.30
54144;BME280;40050;47.324;18.792;2022-12-15T00:18:17;993.75;;;2.20;72.28
54144;BME280;40050;47.324;18.792;2022-12-15T00:20:19;993.73;;;2.22;72.23
54144;BME280;40050;47.324;18.792;2022-12-15T00:22:22;993.67;;;2.22;72.17
54144;BME280;40050;47.324;18.792;2022-12-15T00:24:24;993.71;;;2.26;72.16
54144;BME280;40050;47.324;18.792;2022-12-15T00:26:26;993.71;;;2.26;72.13
54144;BME280;40050;47.324;18.792;2022-12-15T00:28:29;993.66;;;2.29;72.11
54144;BME280;40050;47.324;18.792;2022-12-15T00:30:31;993.76;;;2.30;72.12
54144;BME280;40050;47.324;18.792;2022-12-15T00:32:33;993.72;;;2.29;72.08
54144;BME280;40050;47.324;18.792;2022-12-15T00:34:36;993.82;;;2.34;71.92
54144;BME280;40050;47.324;18.792;2022-12-15T00:36:38;993.74;;;2.30;71.81
54144;BME280;40050;47.324;18.792;2022-12-15T00:38:40;993.85;;;2.37;71.74
54144;BME280;40050;47.324;18.792;2022-12-15T00:40:43;993.87;;;2.34;71.80
54144;BME280;40050;47.324;18.792;2022-12-15T00:42:45;993.94;;;2.37;71.80
54144;BME280;40050;47.324;18.792;2022-12-15T00:44:47;993.93;;;2.34;71.79
54144;BME280;40050;47.324;18.792;2022-12-15T00:46:50;993.94;;;2.39;71.82
54144;BME280;40050;47.324;18.792;2022-12-15T00:48:52;993.77;;;2.38;71.82
54144;BME280;40050;47.324;18.792;2022-12-15T00:50:55;993.80;;;2.34;71.78
54144;BME280;40050;47.324;18.792;2022-12-15T00:52:57;993.86;;;2.34;71.77
54144;BME280;40050;47.324;18.792;2022-12-15T00:54:59;993.75;;;2.34;71.75
54144;BME280;40050;47.324;18.792;2022-12-15T00:57:02;993.69;;;2.32;71.81
54144;BME280;40050;47.324;18.792;2022-12-15T00:59:04;993.64;;;2.32;71.77
54144;BME280;40050;47.324;18.792;2022-12-15T01:01:07;993.57;;;2.27;71.74
54144;BME280;40050;47.324;18.792;2022-12-15T01:03:14;993.65;;;2.27;71.75
54144;BME280;40050;47.324;18.792;2022-12-15T01:05:16;993.66;;;2.28;71.75
54144;BME280;40050;47.324;18.792;2022-12-15T01:07:19;993.78;;;2.29;71.80
54144;BME280;40050;47.324;18.792;2022-12-15T01:09:22;993.77;;;2.30;71.79
54144;BME280;40050;47.324;18.792;2022-12-15T01:11:24;993.87;;;2.33;71.80
54144;BME280;40050;47.324;18.792;2022-12-15T01:13:27;993.88;;;2.33;71.80
54144;BME280;40050;47.324;18.792;2022-12-15T01:15:29;993.85;;;2.31;71.81
54144;BME280;40050;47.324;18.792;2022-12-15T01:17:32;993.93;;;2.35;71.76
54144;BME280;40050;47.324;18.792;2022-12-15T01:19:34;993.92;;;2.36;71.71
54144;BME280;40050;47.324;18.792;2022-12-15T01:21:36;993.88;;;2.36;71.66
54144;BME280;40050;47.324;18.792;2022-12-15T01:23:40;993.84;;;2.33;71.63
54144;BME280;40050;47.324;18.792;2022-12-15T01:25:43;993.82;;;2.34;71.67
54144;BME280;40050;47.324;18.792;2022-12-15T01:27:45;993.82;;;2.33;71.74
54144;BME280;40050;47.324;18.792;2022-12-15T01:29:48;993.84;;;2.34;71.75
54144;BME280;40050;47.324;18.792;2022-12-15T01:31:50;993.87;;;2.36;71.74
54144;BME280;40050;47.324;18.792;2022-12-15T01:33:52;993.91;;;2.33;71.67
54144;BME280;40050;47.324;18.792;2022-12-15T01:35:55;993.92;;;2.32;71.70
54144;BME280;40050;47.324;18.792;2022-12-15T01:37:59;993.90;;;2.33;71.81
54144;BME280;40050;47.324;18.792;2022-12-15T01:40:02;993.58;;;2.16;71.84
54144;BME280;40050;47.324;18.792;2022-12-15T01:42:04;993.82;;;2.31;71.81
54144;BME280;40050;47.324;18.792;2022-12-15T01:44:19;993.85;;;2.33;71.83
54144;BME280;40050;47.324;18.792;2022-12-15T01:46:22;993.79;;;2.33;71.86
54144;BME280;40050;47.324;18.792;2022-12-15T01:48:27;993.85;;;2.34;71.83
54144;BME280;40050;47.324;18.792;2022-12-15T01:50:31;993.81;;;2.33;71.83
54144;BME280;40050;47.324;18.792;2022-12-15T01:52:36;993.81;;;2.33;71.83
54144;BME280;40050;47.324;18.792;2022-12-15T01:54:42;993.85;;;2.32;71.80
54144;BME280;40050;47.324;18.792;2022-12-15T01:56:49;993.86;;;2.33;71.86
54144;BME280;40050;47.324;18.792;2022-12-15T01:58:52;993.88;;;2.33;71.89
54144;BME280;40050;47.324;18.792;2022-12-15T02:00:56;993.76;;;2.26;71.90
54144;BME280;40050;47.324;18.792;2022-12-15T02:02:59;993.92;;;2.35;71.97
54144;BME280;40050;47.324;18.792;2022-12-15T02:05:03;993.89;;;2.36;72.00
54144;BME280;40050;47.324;18.792;2022-12-15T02:07:08;993.87;;;2.28;71.96
54144;BME280;40050;47.324;18.792;2022-12-15T02:09:12;993.95;;;2.39;72.01
54144;BME280;40050;47.324;18.792;2022-12-15T02:11:25;993.98;;;2.39;72.01
54144;BME280;40050;47.324;18.792;2022-12-15T02:15:59;993.96;;;2.34;71.93
54144;BME280;40050;47.324;18.792;2022-12-15T02:18:09;994.01;;;2.38;71.95
54144;BME280;40050;47.324;18.792;2022-12-15T02:22:49;994.00;;;2.38;71.98
54144;BME280;40050;47.324;18.792;2022-12-15T02:27:32;993.95;;;2.45;71.95
54144;BME280;40050;47.324;18.792;2022-12-15T02:32:13;993.88;;;2.47;71.98
54144;BME280;40050;47.324;18.792;2022-12-15T02:34:22;993.91;;;2.48;71.98
54144;BME280;40050;47.324;18.792;2022-12-15T02:36:37;993.97;;;2.50;71.98
54144;BME280;40050;47.324;18.792;2022-12-15T02:38:42;993.94;;;2.49;71.94
54144;BME280;40050;47.324;18.792;2022-12-15T02:40:44;994.04;;;2.51;71.91
54144;BME280;40050;47.324;18.792;2022-12-15T02:42:47;993.95;;;2.45;71.90
54144;BME280;40050;47.324;18.792;2022-12-15T02:44:53;994.02;;;2.53;71.86
54144;BME280;40050;47.324;18.792;2022-12-15T02:47:10;993.98;;;2.51;71.92
54144;BME280;40050;47.324;18.792;2022-12-15T02:49:29;994.03;;;2.55;71.95
54144;BME280;40050;47.324;18.792;2022-12-15T02:51:34;993.93;;;2.53;71.83
54144;BME280;40050;47.324;18.792;2022-12-15T02:54:01;993.91;;;2.51;71.91
54144;BME280;40050;47.324;18.792;2022-12-15T02:56:18;993.97;;;2.53;72.01
54144;BME280;40050;47.324;18.792;2022-12-15T02:58:35;993.97;;;2.54;72.02
54144;BME280;40050;47.324;18.792;2022-12-15T03:00:41;993.92;;;2.53;71.97
54144;BME280;40050;47.324;18.792;2022-12-15T03:02:52;993.95;;;2.55;71.86
54144;BME280;40050;47.324;18.792;2022-12-15T03:04:55;993.88;;;2.54;71.88
54144;BME280;40050;47.324;18.792;2022-12-15T03:06:59;993.92;;;2.55;71.92
54144;BME280;40050;47.324;18.792;2022-12-15T03:09:03;993.96;;;2.56;71.85
54144;BME280;40050;47.324;18.792;2022-12-15T03:11:05;993.94;;;2.56;71.83
54144;BME280;40050;47.324;18.792;2022-12-15T03:13:08;993.97;;;2.53;71.74
54144;BME280;40050;47.324;18.792;2022-12-15T03:15:10;994.02;;;2.52;71.69
54144;BME280;40050;47.324;18.792;2022-12-15T03:17:13;994.11;;;2.53;71.68
54144;BME280;40050;47.324;18.792;2022-12-15T03:19:15;994.03;;;2.49;71.63
54144;BME280;40050;47.324;18.792;2022-12-15T03:21:17;993.79;;;2.29;71.59
54144;BME280;40050;47.324;18.792;2022-12-15T03:23:20;994.02;;;2.49;71.47
54144;BME280;40050;47.324;18.792;2022-12-15T03:25:22;993.97;;;2.47;71.37
54144;BME280;40050;47.324;18.792;2022-12-15T03:27:25;993.82;;;2.31;71.24
54144;BME280;40050;47.324;18.792;2022-12-15T03:29:27;994.02;;;2.40;71.17
54144;BME280;40050;47.324;18.792;2022-12-15T03:31:29;993.83;;;2.20;71.09
54144;BME280;40050;47.324;18.792;2022-12-15T03:33:32;994.18;;;2.37;71.09
54144;BME280;40050;47.324;18.792;2022-12-15T03:35:34;994.14;;;2.30;71.09
54144;BME280;40050;47.324;18.792;2022-12-15T03:37:37;994.22;;;2.30;71.08
54144;BME280;40050;47.324;18.792;2022-12-15T03:39:39;994.14;;;2.26;71.10
54144;BME280;40050;47.324;18.792;2022-12-15T03:41:41;994.20;;;2.21;71.20
54144;BME280;40050;47.324;18.792;2022-12-15T03:43:44;994.14;;;2.18;71.25
54144;BME280;40050;47.324;18.792;2022-12-15T03:45:46;994.13;;;2.19;71.26
54144;BME280;40050;47.324;18.792;2022-12-15T03:47:49;994.08;;;2.16;71.25
54144;BME280;40050;47.324;18.792;2022-12-15T03:49:51;994.11;;;2.15;71.30
54144;BME280;40050;47.324;18.792;2022-12-15T03:51:53;994.19;;;2.13;71.32
54144;BME280;40050;47.324;18.792;2022-12-15T03:53:56;994.14;;;2.08;71.36
54144;BME280;40050;47.324;18.792;2022-12-15T03:55:58;994.26;;;2.08;71.30
54144;BME280;40050;47.324;18.792;2022-12-15T03:58:00;994.34;;;2.06;71.29
54144;BME280;40050;47.324;18.792;2022-12-15T04:00:03;994.34;;;2.04;71.25
54144;BME280;40050;47.324;18.792;2022-12-15T04:02:07;994.30;;;2.01;71.28
54144;BME280;40050;47.324;18.792;2022-12-15T04:04:10;994.23;;;1.99;71.27
54144;BME280;40050;47.324;18.792;2022-12-15T04:06:13;994.33;;;1.96;71.25
54144;BME280;40050;47.324;18.792;2022-12-15T04:08:15;994.42;;;1.95;71.19
54144;BME280;40050;47.324;18.792;2022-12-15T04:10:17;994.52;;;1.94;71.14
54144;BME280;40050;47.324;18.792;2022-12-15T04:12:20;994.53;;;1.90;71.12
54144;BME280;40050;47.324;18.792;2022-12-15T04:14:22;994.60;;;1.90;70.89
54144;BME280;40050;47.324;18.792;2022-12-15T04:16:25;994.61;;;1.87;70.72
54144;BME280;40050;47.324;18.792;2022-12-15T04:18:27;994.66;;;1.81;70.78
54144;BME280;40050;47.324;18.792;2022-12-15T04:20:29;994.64;;;1.74;70.85
54144;BME280;40050;47.324;18.792;2022-12-15T04:22:32;994.70;;;1.70;70.91
54144;BME280;40050;47.324;18.792;2022-12-15T04:24:34;994.77;;;1.65;71.07
54144;BME280;40050;47.324;18.792;2022-12-15T04:26:37;994.80;;;1.59;71.19
54144;BME280;40050;47.324;18.792;2022-12-15T04:28:39;994.78;;;1.53;71.28
54144;BME280;40050;47.324;18.792;2022-12-15T04:30:45;994.77;;;1.48;71.52
54144;BME280;40050;47.324;18.792;2022-12-15T04:32:49;994.92;;;1.45;71.70
54144;BME280;40050;47.324;18.792;2022-12-15T04:34:51;994.81;;;1.31;71.77
54144;BME280;40050;47.324;18.792;2022-12-15T04:36:54;995.00;;;1.35;72.08
54144;BME280;40050;47.324;18.792;2022-12-15T04:38:56;995.07;;;1.29;72.28
54144;BME280;40050;47.324;18.792;2022-12-15T04:40:59;995.17;;;1.25;72.38
54144;BME280;40050;47.324;18.792;2022-12-15T04:43:01;995.27;;;1.28;72.33
54144;BME280;40050;47.324;18.792;2022-12-15T04:45:05;995.29;;;1.26;71.94
54144;BME280;40050;47.324;18.792;2022-12-15T04:47:08;995.36;;;1.25;71.62
54144;BME280;40050;47.324;18.792;2022-12-15T04:49:11;995.40;;;1.23;71.37
54144;BME280;40050;47.324;18.792;2022-12-15T04:51:13;995.27;;;1.15;71.47
54144;BME280;40050;47.324;18.792;2022-12-15T04:53:16;995.39;;;1.19;71.60
54144;BME280;40050;47.324;18.792;2022-12-15T04:55:18;995.37;;;1.18;71.68
54144;BME280;40050;47.324;18.792;2022-12-15T04:57:21;995.40;;;1.17;71.73
54144;BME280;40050;47.324;18.792;2022-12-15T04:59:23;995.33;;;1.12;71.75
54144;BME280;40050;47.324;18.792;2022-12-15T05:01:25;995.26;;;1.14;71.81
54144;BME280;40050;47.324;18.792;2022-12-15T05:03:28;995.24;;;1.14;71.90
54144;BME280;40050;47.324;18.792;2022-12-15T05:05:30;995.25;;;1.11;71.99
54144;BME280;40050;47.324;18.792;2022-12-15T05:07:32;995.23;;;1.13;72.01
54144;BME280;40050;47.324;18.792;2022-12-15T05:09:35;995.27;;;1.14;72.04
54144;BME280;40050;47.324;18.792;2022-12-15T05:11:37;995.36;;;1.11;72.10
54144;BME280;40050;47.324;18.792;2022-12-15T05:13:40;995.55;;;1.12;72.12
54144;BME280;40050;47.324;18.792;2022-12-15T05:15:42;995.45;;;1.07;72.12
54144;BME280;40050;47.324;18.792;2022-12-15T05:17:44;995.45;;;1.06;72.19
54144;BME280;40050;47.324;18.792;2022-12-15T05:19:47;995.30;;;0.99;72.22
54144;BME280;40050;47.324;18.792;2022-12-15T05:21:49;995.20;;;0.84;72.27
54144;BME280;40050;47.324;18.792;2022-12-15T05:23:51;995.27;;;0.83;72.37
54144;BME280;40050;47.324;18.792;2022-12-15T05:25:54;995.28;;;0.83;72.34
54144;BME280;40050;47.324;18.792;2022-12-15T05:27:56;995.41;;;0.86;71.98
54144;BME280;40050;47.324;18.792;2022-12-15T05:29:58;995.46;;;0.83;71.29
54144;BME280;40050;47.324;18.792;2022-12-15T05:32:01;995.55;;;0.77;70.92
54144;BME280;40050;47.324;18.792;2022-12-15T05:34:03;995.62;;;0.72;70.88
54144;BME280;40050;47.324;18.792;2022-12-15T05:36:06;995.68;;;0.66;71.07
54144;BME280;40050;47.324;18.792;2022-12-15T05:38:08;995.71;;;0.62;71.25
54144;BME280;40050;47.324;18.792;2022-12-15T05:40:11;995.64;;;0.60;71.53
54144;BME280;40050;47.324;18.792;2022-12-15T05:42:13;995.61;;;0.58;71.66
54144;BME280;40050;47.324;18.792;2022-12-15T05:44:15;995.60;;;0.56;71.74
54144;BME280;40050;47.324;18.792;2022-12-15T05:46:18;995.63;;;0.51;71.77
54144;BME280;40050;47.324;18.792;2022-12-15T05:48:20;995.70;;;0.52;71.86
54144;BME280;40050;47.324;18.792;2022-12-15T05:50:23;995.75;;;0.50;72.02
54144;BME280;40050;47.324;18.792;2022-12-15T05:52:25;995.90;;;0.54;72.10
54144;BME280;40050;47.324;18.792;2022-12-15T05:54:27;995.91;;;0.55;72.06
54144;BME280;40050;47.324;18.792;2022-12-15T05:56:30;995.90;;;0.53;71.89
54144;BME280;40050;47.324;18.792;2022-12-15T05:56:32;995.92;;;0.55;71.89
54144;BME280;40050;47.324;18.792;2022-12-15T05:56:35;995.98;;;0.55;71.88
54144;BME280;40050;47.324;18.792;2022-12-15T05:56:37;996.00;;;0.55;71.87
54144;BME280;40050;47.324;18.792;2022-12-15T05:56:40;995.93;;;0.53;71.88
54144;BME280;40050;47.324;18.792;2022-12-15T05:56:42;995.95;;;0.52;71.87
54144;BME280;40050;47.324;18.792;2022-12-15T05:56:45;996.00;;;0.55;71.86
54144;BME280;40050;47.324;18.792;2022-12-15T05:56:48;995.99;;;0.55;71.86
54144;BME280;40050;47.324;18.792;2022-12-15T05:56:50;995.98;;;0.55;71.85
54144;BME280;40050;47.324;18.792;2022-12-15T05:56:52;995.98;;;0.55;71.85
54144;BME280;40050;47.324;18.792;2022-12-15T05:56:55;995.69;;;0.37;71.83
54144;BME280;40050;47.324;18.792;2022-12-15T05:56:57;995.97;;;0.55;71.85
54144;BME280;40050;47.324;18.792;2022-12-15T05:56:59;995.88;;;0.49;71.83
54144;BME280;40050;47.324;18.792;2022-12-15T05:57:02;995.86;;;0.46;71.84
54144;BME280;40050;47.324;18.792;2022-12-15T05:57:04;995.84;;;0.46;71.84
54144;BME280;40050;47.324;18.792;2022-12-15T05:57:07;995.95;;;0.52;71.84
54144;BME280;40050;47.324;18.792;2022-12-15T05:57:09;995.97;;;0.54;71.83
54144;BME280;40050;47.324;18.792;2022-12-15T05:57:11;995.99;;;0.54;71.83
54144;BME280;40050;47.324;18.792;2022-12-15T05:57:14;996.00;;;0.54;71.83
54144;BME280;40050;47.324;18.792;2022-12-15T05:57:16;996.03;;;0.54;71.83
54144;BME280;40050;47.324;18.792;2022-12-15T05:57:19;995.87;;;0.45;71.81
54144;BME280;40050;47.324;18.792;2022-12-15T05:57:23;996.00;;;0.54;71.82
54144;BME280;40050;47.324;18.792;2022-12-15T05:57:26;996.01;;;0.54;71.81
54144;BME280;40050;47.324;18.792;2022-12-15T05:57:31;996.02;;;0.54;71.80
54144;BME280;40050;47.324;18.792;2022-12-15T05:59:33;995.98;;;0.49;71.68
54144;BME280;40050;47.324;18.792;2022-12-15T06:01:36;996.14;;;0.51;72.10
54144;BME280;40050;47.324;18.792;2022-12-15T06:03:38;996.19;;;0.54;73.00
54144;BME280;40050;47.324;18.792;2022-12-15T06:05:41;996.32;;;0.52;72.83
54144;BME280;40050;47.324;18.792;2022-12-15T06:07:43;996.41;;;0.55;72.54
54144;BME280;40050;47.324;18.792;2022-12-15T06:09:45;996.41;;;0.54;72.46
54144;BME280;40050;47.324;18.792;2022-12-15T06:11:48;996.42;;;0.54;72.44
54144;BME280;40050;47.324;18.792;2022-12-15T06:13:50;996.46;;;0.54;72.75
54144;BME280;40050;47.324;18.792;2022-12-15T06:16:05;996.32;;;0.49;73.02
54144;BME280;40050;47.324;18.792;2022-12-15T06:18:08;996.42;;;0.52;73.25
54144;BME280;40050;47.324;18.792;2022-12-15T06:20:11;996.38;;;0.53;73.39
54144;BME280;40050;47.324;18.792;2022-12-15T06:22:13;996.23;;;0.46;73.60
54144;BME280;40050;47.324;18.792;2022-12-15T06:24:15;996.31;;;0.58;73.71
54144;BME280;40050;47.324;18.792;2022-12-15T06:26:28;996.24;;;0.61;73.76
54144;BME280;40050;47.324;18.792;2022-12-15T06:28:31;996.23;;;0.65;73.81
54144;BME280;40050;47.324;18.792;2022-12-15T06:30:33;996.35;;;0.70;73.75
54144;BME280;40050;47.324;18.792;2022-12-15T06:32:35;996.38;;;0.70;73.86
54144;BME280;40050;47.324;18.792;2022-12-15T06:34:38;996.42;;;0.68;73.99
54144;BME280;40050;47.324;18.792;2022-12-15T06:36:40;996.39;;;0.67;74.10
54144;BME280;40050;47.324;18.792;2022-12-15T06:38:43;996.51;;;0.71;74.12
54144;BME280;40050;47.324;18.792;2022-12-15T06:40:47;996.69;;;0.74;74.24
54144;BME280;40050;47.324;18.792;2022-12-15T06:42:55;996.75;;;0.76;74.34
54144;BME280;40050;47.324;18.792;2022-12-15T06:44:58;996.63;;;0.76;74.42
54144;BME280;40050;47.324;18.792;2022-12-15T06:47:00;996.68;;;0.80;74.52
54144;BME280;40050;47.324;18.792;2022-12-15T06:49:02;996.77;;;0.82;74.57
54144;BME280;40050;47.324;18.792;2022-12-15T06:51:05;996.82;;;0.82;74.60
54144;BME280;40050;47.324;18.792;2022-12-15T06:53:08;996.82;;;0.85;74.64
54144;BME280;40050;47.324;18.792;2022-12-15T06:55:10;996.80;;;0.81;74.68
54144;BME280;40050;47.324;18.792;2022-12-15T06:57:13;997.04;;;0.96;74.69
54144;BME280;40050;47.324;18.792;2022-12-15T06:59:15;997.12;;;0.99;74.71
54144;BME280;40050;47.324;18.792;2022-12-15T07:01:18;997.20;;;1.07;74.78
54144;BME280;40050;47.324;18.792;2022-12-15T07:03:21;997.16;;;1.04;74.92
54144;BME280;40050;47.324;18.792;2022-12-15T07:05:23;997.08;;;1.03;75.11
54144;BME280;40050;47.324;18.792;2022-12-15T07:07:25;997.01;;;1.07;75.23
54144;BME280;40050;47.324;18.792;2022-12-15T07:09:28;997.06;;;1.14;75.30
54144;BME280;40050;47.324;18.792;2022-12-15T07:11:30;997.10;;;1.19;75.29
54144;BME280;40050;47.324;18.792;2022-12-15T07:13:32;997.29;;;1.29;75.28
54144;BME280;40050;47.324;18.792;2022-12-15T07:15:35;997.29;;;1.33;75.38
54144;BME280;40050;47.324;18.792;2022-12-15T07:17:37;997.29;;;1.33;75.51
54144;BME280;40050;47.324;18.792;2022-12-15T07:19:40;997.22;;;1.36;75.61
54144;BME280;40050;47.324;18.792;2022-12-15T07:21:42;997.22;;;1.38;75.72
54144;BME280;40050;47.324;18.792;2022-12-15T07:23:44;997.24;;;1.44;75.79
54144;BME280;40050;47.324;18.792;2022-12-15T07:25:47;997.25;;;1.47;75.89
54144;BME280;40050;47.324;18.792;2022-12-15T07:27:49;997.40;;;1.56;75.94
54144;BME280;40050;47.324;18.792;2022-12-15T07:29:51;997.50;;;1.63;75.84
54144;BME280;40050;47.324;18.792;2022-12-15T07:31:54;997.48;;;1.62;75.85
54144;BME280;40050;47.324;18.792;2022-12-15T07:33:57;997.49;;;1.66;75.93
54144;BME280;40050;47.324;18.792;2022-12-15T07:35:59;997.44;;;1.68;75.95
54144;BME280;40050;47.324;18.792;2022-12-15T07:38:04;997.40;;;1.69;75.89
54144;BME280;40050;47.324;18.792;2022-12-15T07:40:07;997.38;;;1.69;75.94
54144;BME280;40050;47.324;18.792;2022-12-15T07:42:09;997.46;;;1.69;75.97
54144;BME280;40050;47.324;18.792;2022-12-15T07:44:12;997.56;;;1.70;75.93
54144;BME280;40050;47.324;18.792;2022-12-15T07:46:14;997.47;;;1.69;75.98
54144;BME280;40050;47.324;18.792;2022-12-15T07:48:17;997.49;;;1.65;76.25
54144;BME280;40050;47.324;18.792;2022-12-15T07:50:19;997.36;;;1.63;76.33
54144;BME280;40050;47.324;18.792;2022-12-15T07:52:21;997.56;;;1.61;76.62
54144;BME280;40050;47.324;18.792;2022-12-15T07:54:24;997.64;;;1.60;76.74
54144;BME280;40050;47.324;18.792;2022-12-15T07:56:26;997.81;;;1.72;76.65
54144;BME280;40050;47.324;18.792;2022-12-15T07:58:28;997.81;;;1.75;76.58
54144;BME280;40050;47.324;18.792;2022-12-15T08:00:31;997.83;;;1.74;76.85
54144;BME280;40050;47.324;18.792;2022-12-15T08:02:33;997.80;;;1.72;77.09
54144;BME280;40050;47.324;18.792;2022-12-15T08:04:36;997.79;;;1.72;77.33
54144;BME280;40050;47.324;18.792;2022-12-15T08:06:38;997.83;;;1.77;77.41
54144;BME280;40050;47.324;18.792;2022-12-15T08:08:41;997.87;;;1.82;77.54
54144;BME280;40050;47.324;18.792;2022-12-15T08:10:44;997.83;;;1.89;77.56
54144;BME280;40050;47.324;18.792;2022-12-15T08:12:47;997.80;;;1.91;77.47
54144;BME280;40050;47.324;18.792;2022-12-15T08:14:49;997.78;;;1.96;77.50
54144;BME280;40050;47.324;18.792;2022-12-15T08:16:51;997.79;;;2.00;77.56
54144;BME280;40050;47.324;18.792;2022-12-15T08:18:54;997.83;;;2.03;77.58
54144;BME280;40050;47.324;18.792;2022-12-15T08:21:01;997.78;;;2.13;77.54
54144;BME280;40050;47.324;18.792;2022-12-15T08:23:03;997.68;;;2.17;77.49
54144;BME280;40050;47.324;18.792;2022-12-15T08:25:05;997.68;;;2.24;77.42
54144;BME280;40050;47.324;18.792;2022-12-15T08:27:08;997.65;;;2.24;77.36
54144;BME280;40050;47.324;18.792;2022-12-15T08:29:11;997.69;;;2.28;77.30
54144;BME280;40050;47.324;18.792;2022-12-15T08:31:15;997.76;;;2.32;77.29
54144;BME280;40050;47.324;18.792;2022-12-15T08:33:18;997.79;;;2.38;77.32
54144;BME280;40050;47.324;18.792;2022-12-15T08:35:20;997.81;;;2.43;77.20
54144;BME280;40050;47.324;18.792;2022-12-15T08:37:22;997.84;;;2.47;76.99
54144;BME280;40050;47.324;18.792;2022-12-15T08:39:25;997.85;;;2.51;77.03
54144;BME280;40050;47.324;18.792;2022-12-15T08:41:30;997.98;;;2.60;77.00
54144;BME280;40050;47.324;18.792;2022-12-15T08:43:33;998.00;;;2.61;76.86
54144;BME280;40050;47.324;18.792;2022-12-15T08:45:35;997.95;;;2.66;76.77
54144;BME280;40050;47.324;18.792;2022-12-15T08:47:38;998.06;;;2.68;76.70
54144;BME280;40050;47.324;18.792;2022-12-15T08:49:40;998.16;;;2.70;76.79
54144;BME280;40050;47.324;18.792;2022-12-15T08:51:43;998.20;;;2.77;76.68
54144;BME280;40050;47.324;18.792;2022-12-15T08:53:45;998.19;;;2.80;76.42
54144;BME280;40050;47.324;18.792;2022-12-15T08:55:48;998.18;;;2.85;76.38
54144;BME280;40050;47.324;18.792;2022-12-15T08:57:52;998.09;;;2.87;76.44
54144;BME280;40050;47.324;18.792;2022-12-15T08:59:54;998.00;;;2.92;76.49
54144;BME280;40050;47.324;18.792;2022-12-15T09:01:57;998.10;;;2.98;76.38
54144;BME280;40050;47.324;18.792;2022-12-15T09:03:59;998.16;;;3.01;76.09
54144;BME280;40050;47.324;18.792;2022-12-15T09:06:05;998.32;;;3.08;75.93
54144;BME280;40050;47.324;18.792;2022-12-15T09:08:08;998.29;;;3.08;75.60
54144;BME280;40050;47.324;18.792;2022-12-15T09:10:10;998.22;;;3.07;75.72
54144;BME280;40050;47.324;18.792;2022-12-15T09:12:13;998.10;;;3.11;75.78
54144;BME280;40050;47.324;18.792;2022-12-15T09:14:16;997.98;;;3.14;75.82
54144;BME280;40050;47.324;18.792;2022-12-15T09:16:19;998.02;;;3.18;75.69
54144;BME280;40050;47.324;18.792;2022-12-15T09:18:22;998.07;;;3.19;75.65
54144;BME280;40050;47.324;18.792;2022-12-15T09:20:24;998.07;;;3.22;75.64
54144;BME280;40050;47.324;18.792;2022-12-15T09:22:26;998.14;;;3.26;75.42
54144;BME280;40050;47.324;18.792;2022-12-15T09:24:29;998.12;;;3.28;75.34
54144;BME280;40050;47.324;18.792;2022-12-15T09:26:32;998.17;;;3.32;75.21
54144;BME280;40050;47.324;18.792;2022-12-15T09:28:35;998.14;;;3.31;75.13
54144;BME280;40050;47.324;18.792;2022-12-15T09:30:37;998.29;;;3.36;74.95
54144;BME280;40050;47.324;18.792;2022-12-15T09:32:40;998.36;;;3.35;74.72
54144;BME280;40050;47.324;18.792;2022-12-15T09:34:42;998.39;;;3.39;74.70
54144;BME280;40050;47.324;18.792;2022-12-15T09:36:44;998.35;;;3.43;74.57
54144;BME280;40050;47.324;18.792;2022-12-15T09:38:47;998.43;;;3.41;74.50
54144;BME280;40050;47.324;18.792;2022-12-15T09:40:49;998.41;;;3.34;74.40
54144;BME280;40050;47.324;18.792;2022-12-15T09:42:52;998.18;;;3.18;74.49
54144;BME280;40050;47.324;18.792;2022-12-15T09:45:04;998.35;;;3.26;74.57
54144;BME280;40050;47.324;18.792;2022-12-15T09:47:16;998.42;;;3.23;74.68
54144;BME280;40050;47.324;18.792;2022-12-15T09:51:45;998.45;;;3.25;74.74
54144;BME280;40050;47.324;18.792;2022-12-15T09:53:49;998.46;;;3.31;74.80
54144;BME280;40050;47.324;18.792;2022-12-15T09:55:59;998.50;;;3.37;74.66
54144;BME280;40050;47.324;18.792;2022-12-15T09:58:35;998.54;;;3.34;74.62
54144;BME280;40050;47.324;18.792;2022-12-15T10:00:43;998.47;;;3.32;74.61
54144;BME280;40050;47.324;18.792;2022-12-15T10:07:32;998.34;;;3.34;74.26
54144;BME280;40050;47.324;18.792;2022-12-15T10:09:38;998.23;;;3.35;74.40
54144;BME280;40050;47.324;18.792;2022-12-15T10:11:50;998.18;;;3.38;74.47
54144;BME280;40050;47.324;18.792;2022-12-15T10:13:59;998.18;;;3.45;74.44
54144;BME280;40050;47.324;18.792;2022-12-15T10:16:13;998.13;;;3.52;74.31
54144;BME280;40050;47.324;18.792;2022-12-15T10:18:21;998.16;;;3.53;74.42
54144;BME280;40050;47.324;18.792;2022-12-15T10:20:26;998.21;;;3.52;74.33
54144;BME280;40050;47.324;18.792;2022-12-15T10:22:30;998.30;;;3.58;74.30
54144;BME280;40050;47.324;18.792;2022-12-15T10:24:34;998.30;;;3.61;74.18
54144;BME280;40050;47.324;18.792;2022-12-15T10:26:37;998.31;;;3.65;73.93
54144;BME280;40050;47.324;18.792;2022-12-15T10:31:11;998.22;;;3.62;73.99
54144;BME280;40050;47.324;18.792;2022-12-15T10:33:24;998.26;;;3.67;74.06
54144;BME280;40050;47.324;18.792;2022-12-15T10:35:30;998.23;;;3.68;74.00
54144;BME280;40050;47.324;18.792;2022-12-15T10:37:33;998.21;;;3.67;74.01
54144;BME280;40050;47.324;18.792;2022-12-15T10:39:39;998.14;;;3.65;74.12
54144;BME280;40050;47.324;18.792;2022-12-15T10:41:42;998.18;;;3.72;74.18
54144;BME280;40050;47.324;18.792;2022-12-15T10:43:45;998.17;;;3.79;74.22
54144;BME280;40050;47.324;18.792;2022-12-15T10:45:48;998.13;;;3.82;74.16
54144;BME280;40050;47.324;18.792;2022-12-15T10:47:57;998.09;;;3.88;74.15